Meteo18 Weather Cam more information Meteo18 Weather Cam


Thunder radar more information blitzortung!


Rain radar more information rain snow radar



Nearby METAR Reports

   
EBAW - Antwerp
Updated: 21-11-2018 21:20
Clear  
Clear  
   Wind: ENE 9.3 km/h
Wind: ENE 9.3 km/h
Temperature: 4°C
Wind Chill: 2°C
Dew Point: 0°C
Humidity: 75%
Barometer: 1018 hPa
Visibility: More than 10 km
Cloud details: Clear
EBAW 212020Z 06005KT CAVOK 04/M00 Q1018 NOSIG
EBLG - Li├Ęge
Updated: 21-11-2018 21:20
Partly Cloudy  
Partly Cloudy  
   Wind: East 5.6 km/h
Wind: East 5.6 km/h
Temperature: 2°C
Wind Chill: 1°C
Dew Point: 0°C
Humidity: 87%
Barometer: 1017 hPa
Clouds: Partly Cloudy
Visibility: 7 km
Cloud details: Partly Cloudy
EBLG 212020Z 08003KT 7000 NSC 02/M00 Q1017 NOSIG
EBCV - Mons/Bergen
Updated: 21-11-2018 21:25
Mist, Mostly Cloudy  
Mist, Mostly Cloudy  
   Wind: varies 3.7 km/h
Wind: varies 3.7 km/h
Temperature: 4°C
Dew Point: 3°C
Humidity: 93%
Barometer: 1018 hPa
Clouds: Mostly Cloudy
Visibility: 4 km
Cloud details: Partly Cloudy 4200 ft,
Mostly Cloudy 5800 ft
EBCV 212025Z AUTO VRB02KT 4400 BR SCT042/// BKN058/// 04/03 Q1018 GRN
EHBK - Maastricht
Updated: 21-11-2018 21:25
Partly Cloudy  
Partly Cloudy  
   Wind: East 13 km/h
Wind: East 13 km/h
Temperature: 1°C
Wind Chill: -3°C
Dew Point: -1°C
Humidity: 87%
Barometer: 1017 hPa
Clouds: Partly Cloudy
Visibility: More than 10 km
Cloud details: Partly Cloudy
EHBK 212025Z AUTO 09007KT 9999 NSC 01/M01 Q1017 NOSIG
ELLX - Luxemburg
Updated: 21-11-2018 21:20
Mostly Cloudy  
Mostly Cloudy  
   Wind: East 11.1 km/h
Wind: East 11.1 km/h
Temperature: 1°C
Wind Chill: -2°C
Dew Point: -1°C
Humidity: 87%
Barometer: 1017 hPa
Clouds: Mostly Cloudy
Visibility: More than 10 km
Cloud details: Mostly Cloudy 700 ft
ELLX 212020Z 10006KT 070V130 9999 BKN007 01/M01 Q1017 NOSIG
EBOS - Oostende
Updated: 21-11-2018 21:20
Mostly Cloudy  
Mostly Cloudy  
   Wind: East 9.3 km/h
Wind: East 9.3 km/h
Temperature: 4°C
Wind Chill: 2°C
Dew Point: 2°C
Humidity: 87%
Barometer: 1019 hPa
Clouds: Mostly Cloudy
Visibility: 8 km
Cloud details: Mostly Cloudy 3700 ft
EBOS 212020Z 08005KT 8000 BKN037 04/02 Q1019 NOSIG

Script developed by  Saratoga-weather.org Adapted for the template by  Weerstation Leuven

You find our weather info also at:

Weather Underground

Equipment we use:

Weather-station
Davis Vue

Weather-program
Meteobridge

Weather-server
Raspberry PI 2 B+

Provider
1 and 1

Davis Vue

Meteobridge

Raspberry PI 2 B+

1 and 1